KMVL/MVL METAR and TAF weather

Enter ICAO airport designator
Station Type Date Time Source
KMVL METAR 2020/08/10 23:54 UTC NOAA

KMVL 102354Z AUTO 00000KT 10SM FEW046 SCT090 24/21 A2994 RMK AO2 SLP135 T02440211 10300 20244 55004


Station Type Date Time Source
KMVL Decoded METAR 2020/08/10 23:54 UTC NOAA

MORRISVILLE STOWE STATE AIRPORT , VT, United States (KMVL) 44-32N 72-37W 223M
Aug 10, 2020 - 07:54 PM EDT / 2020.08.10 2354 UTC
Wind: Calm:0
Visibility: 10 mile(s):0
Sky conditions: partly cloudy
Temperature: 75.9 F (24.4 C)
Dew Point: 70.0 F (21.1 C)
Relative Humidity: 81%
Pressure (altimeter): 29.94 in. Hg (1013 hPa)
Pressure tendency: 0.01 inches (0.4 hPa) lower than three hours ago
ob: KMVL 102354Z AUTO 00000KT 10SM FEW046 SCT090 24/21 A2994 RMK AO2 SLP135 T02440211 10300 20244 55004
cycle: 0

Station Type Date Time Source
KMVL TAF UTC NOAA

Error!

Example: see airport list